createdAt,value
2024-01-30T05:36:57.041Z,-3.79
2024-01-30T05:40:00.003Z,-3.78
2024-01-30T05:43:04.163Z,-3.74
2024-01-30T05:46:07.744Z,-3.62
2024-01-30T05:49:10.260Z,-3.34
2024-01-30T05:52:12.900Z,-3.38
2024-01-30T05:55:15.510Z,-3.41
2024-01-30T05:58:18.130Z,-3.14
2024-01-30T06:01:20.805Z,-3.08
2024-01-30T06:04:24.377Z,-3.08
2024-01-30T06:07:27.010Z,-3.11
2024-01-30T06:10:29.822Z,-3.18
2024-01-30T06:13:33.217Z,-3.26
2024-01-30T06:16:35.789Z,-3.27
2024-01-30T06:19:38.355Z,-3.11
2024-01-30T06:22:40.936Z,-3.10
2024-01-30T06:25:43.430Z,-3.07
2024-01-30T06:28:45.881Z,-3.08
2024-01-30T06:31:48.384Z,-3.01
2024-01-30T06:34:50.938Z,-2.86
2024-01-30T06:37:53.616Z,-2.77
2024-01-30T06:40:56.535Z,-2.77
2024-01-30T06:43:59.050Z,-2.59
2024-01-30T06:47:01.699Z,-2.50
2024-01-30T06:50:04.829Z,-2.46
2024-01-30T06:53:07.317Z,-2.49
2024-01-30T06:56:09.773Z,-2.37
2024-01-30T06:59:12.245Z,-2.26
2024-01-30T07:02:14.891Z,-2.19
2024-01-30T07:05:18.794Z,-2.08
2024-01-30T07:08:21.924Z,-1.98
2024-01-30T07:11:25.395Z,-1.85
2024-01-30T07:14:27.916Z,-1.76
2024-01-30T07:17:30.572Z,-1.67
2024-01-30T07:20:34.012Z,-1.50
2024-01-30T07:23:36.592Z,-1.39
2024-01-30T07:26:39.111Z,-1.21
2024-01-30T07:29:42.040Z,-1.05
2024-01-30T07:32:45.908Z,-0.96
2024-01-30T07:35:49.249Z,-0.85
2024-01-30T07:38:51.844Z,-0.68
2024-01-30T07:41:54.332Z,-0.53
2024-01-30T07:44:58.447Z,-0.49
2024-01-30T07:48:03.071Z,-0.38
2024-01-30T07:51:06.472Z,-0.22
2024-01-30T07:54:09.191Z,0.05
2024-01-30T07:57:11.834Z,0.14
2024-01-30T08:00:15.434Z,0.27
2024-01-30T08:03:19.456Z,0.38
2024-01-30T08:06:22.067Z,0.74
2024-01-30T08:09:24.673Z,0.69
2024-01-30T08:12:27.229Z,0.71
2024-01-30T08:15:29.748Z,1.05
2024-01-30T08:18:32.284Z,1.12
2024-01-30T08:21:39.665Z,1.33
2024-01-30T08:24:42.795Z,1.40
2024-01-30T08:27:46.416Z,1.54
2024-01-30T08:30:49.169Z,1.60
2024-01-30T08:33:51.750Z,1.94
2024-01-30T08:36:54.578Z,1.87
2024-01-30T08:39:57.184Z,1.81
2024-01-30T08:42:59.945Z,1.99
2024-01-30T08:46:02.602Z,2.18
2024-01-30T08:49:06.213Z,2.14
2024-01-30T08:52:09.452Z,2.16
2024-01-30T08:55:12.610Z,2.23
2024-01-30T08:58:16.678Z,2.56
2024-01-30T09:01:21.086Z,2.58
2024-01-30T09:04:26.760Z,2.55
2024-01-30T09:07:31.124Z,2.63
2024-01-30T09:10:34.057Z,2.69
2024-01-30T09:13:37.423Z,2.85
2024-01-30T09:16:40.142Z,3.11
2024-01-30T09:19:43.919Z,2.95
2024-01-30T09:22:46.486Z,2.95
2024-01-30T09:25:49.481Z,3.27
2024-01-30T09:28:52.080Z,3.17
2024-01-30T09:32:01.208Z,3.25
2024-01-30T09:35:06.323Z,3.45
2024-01-30T09:38:09.024Z,3.63
2024-01-30T09:41:14.556Z,3.30
2024-01-30T09:44:19.858Z,3.68
2024-01-30T09:47:22.932Z,3.61
2024-01-30T09:50:26.485Z,3.35
2024-01-30T09:53:29.197Z,3.48
2024-01-30T09:56:31.718Z,3.77
2024-01-30T09:59:34.209Z,3.72
2024-01-30T10:02:37.338Z,3.78
2024-01-30T10:05:40.297Z,3.82
2024-01-30T10:08:43.917Z,3.66
2024-01-30T10:11:46.416Z,3.68
2024-01-30T10:14:50.187Z,3.76
2024-01-30T10:17:53.127Z,3.96
2024-01-30T10:20:55.891Z,4.27
2024-01-30T10:23:58.654Z,4.09
2024-01-30T10:27:02.041Z,3.94
2024-01-30T10:30:05.954Z,4.26
2024-01-30T10:33:10.161Z,4.11
2024-01-30T10:36:21.061Z,4.13
2024-01-30T10:39:24.886Z,4.08
2024-01-30T10:42:29.060Z,4.31
2024-01-30T10:45:32.944Z,4.38
2024-01-30T10:48:35.653Z,4.37
2024-01-30T10:51:38.453Z,4.49
2024-01-30T10:54:42.004Z,4.43
2024-01-30T10:57:44.872Z,4.49
2024-01-30T11:00:47.824Z,4.72
2024-01-30T11:03:53.563Z,4.99
2024-01-30T11:06:56.205Z,4.66
2024-01-30T11:09:59.858Z,4.72
2024-01-30T11:13:11.630Z,4.58
2024-01-30T11:16:14.515Z,4.80
2024-01-30T11:19:17.380Z,4.90
2024-01-30T11:22:22.150Z,4.43
2024-01-30T11:25:25.261Z,4.39
2024-01-30T11:28:31.932Z,4.53
2024-01-30T11:31:34.761Z,4.77
2024-01-30T11:34:37.477Z,5.00
2024-01-30T11:37:40.674Z,4.94
2024-01-30T11:40:44.984Z,5.15
2024-01-30T11:43:54.432Z,5.38
2024-01-30T11:46:57.223Z,5.03
2024-01-30T11:50:01.226Z,5.03
2024-01-30T11:53:04.292Z,4.91
2024-01-30T11:56:09.968Z,5.09
2024-01-30T11:59:12.453Z,4.95
2024-01-30T12:02:18.751Z,5.01
2024-01-30T12:05:24.721Z,5.14
2024-01-30T12:08:28.842Z,5.18
2024-01-30T12:11:31.668Z,5.27
2024-01-30T12:14:35.280Z,5.51
2024-01-30T12:17:39.103Z,5.25
2024-01-30T12:20:42.147Z,5.32
2024-01-30T12:23:45.187Z,5.23
2024-01-30T12:26:48.411Z,5.35
2024-01-30T12:29:57.842Z,5.54
2024-01-30T12:33:02.788Z,5.65
2024-01-30T12:36:06.566Z,5.60
2024-01-30T12:39:14.051Z,5.51
2024-01-30T12:42:16.556Z,5.58
2024-01-30T12:45:23.735Z,5.73
2024-01-30T12:48:26.955Z,5.76
2024-01-30T12:51:30.186Z,5.53
2024-01-30T12:54:33.332Z,5.44
2024-01-30T12:57:36.567Z,5.78
2024-01-30T13:00:39.991Z,5.61
2024-01-30T13:03:43.739Z,5.52
2024-01-30T13:06:47.712Z,5.44
2024-01-30T13:09:50.597Z,5.49
2024-01-30T13:12:54.291Z,5.58
2024-01-30T13:15:56.821Z,5.52
2024-01-30T13:18:59.506Z,5.98
2024-01-30T13:22:02.203Z,5.78
2024-01-30T13:25:04.958Z,5.72
2024-01-30T13:28:07.470Z,5.49
2024-01-30T13:31:10.079Z,5.61
2024-01-30T13:34:13.105Z,5.84
2024-01-30T13:37:16.140Z,5.74
2024-01-30T13:40:18.822Z,5.64
2024-01-30T13:43:21.437Z,5.76
2024-01-30T13:46:24.135Z,5.94
2024-01-30T13:49:26.668Z,5.72
2024-01-30T13:52:32.768Z,5.61
2024-01-30T13:55:41.088Z,5.61
2024-01-30T13:58:43.734Z,5.40
2024-01-30T14:01:46.455Z,5.46
2024-01-30T14:04:49.148Z,5.70
2024-01-30T14:07:52.988Z,5.70
2024-01-30T14:10:57.383Z,5.67
2024-01-30T14:14:00.413Z,5.49
2024-01-30T14:17:02.918Z,5.57
2024-01-30T14:20:06.113Z,5.72
2024-01-30T14:23:08.600Z,5.69
2024-01-30T14:26:11.221Z,5.58
2024-01-30T14:29:13.760Z,5.60
2024-01-30T14:32:16.254Z,5.53
2024-01-30T14:35:19.138Z,5.34
2024-01-30T14:38:22.574Z,5.39
2024-01-30T14:41:25.133Z,5.48
2024-01-30T14:44:27.674Z,5.62
2024-01-30T14:47:30.523Z,5.30
2024-01-30T14:50:33.168Z,5.11
2024-01-30T14:53:35.676Z,5.03
2024-01-30T14:56:38.226Z,5.02
2024-01-30T14:59:40.747Z,4.81
2024-01-30T15:02:43.261Z,4.77
2024-01-30T15:05:45.786Z,4.56
2024-01-30T15:08:48.302Z,4.50
2024-01-30T15:11:51.605Z,4.60
2024-01-30T15:14:54.185Z,4.71
2024-01-30T15:17:56.812Z,4.55
2024-01-30T15:20:59.321Z,4.50
2024-01-30T15:24:03.047Z,4.00
2024-01-30T15:27:05.871Z,3.83
2024-01-30T15:30:08.845Z,3.66
2024-01-30T15:33:11.728Z,3.63
2024-01-30T15:36:17.238Z,3.41
2024-01-30T15:39:20.704Z,3.28
2024-01-30T15:42:23.182Z,3.19
2024-01-30T15:45:28.120Z,3.09
2024-01-30T15:48:31.883Z,3.06
2024-01-30T15:51:34.419Z,2.90
2024-01-30T15:54:36.830Z,2.78
2024-01-30T15:57:40.723Z,2.74
2024-01-30T16:00:43.424Z,2.60
2024-01-30T16:03:49.131Z,2.54
